createdAt,value
2023-04-16T00:02:54.654Z,2.50
2023-04-16T00:07:00.056Z,2.50
2023-04-16T00:11:05.263Z,3.50
2023-04-16T00:15:11.272Z,4.40
2023-04-16T00:19:16.562Z,3.40
2023-04-16T00:23:21.861Z,3.60
2023-04-16T00:27:27.128Z,3.90
2023-04-16T00:31:32.846Z,4.00
2023-04-16T00:35:38.050Z,4.60
2023-04-16T00:39:43.250Z,3.10
2023-04-16T00:43:48.626Z,3.30
2023-04-16T00:47:53.901Z,2.80
2023-04-16T00:56:03.527Z,3.60
2023-04-16T01:00:09.856Z,3.60
2023-04-16T01:04:15.341Z,3.90
2023-04-16T01:08:22.136Z,4.00
2023-04-16T01:12:27.395Z,3.20
2023-04-16T01:16:33.564Z,3.60
2023-04-16T01:20:38.799Z,4.20
2023-04-16T01:24:44.028Z,3.00
2023-04-16T01:28:49.257Z,4.20
2023-04-16T01:32:54.538Z,3.40
2023-04-16T01:36:59.808Z,3.80
2023-04-16T01:41:05.063Z,3.50
2023-04-16T01:45:11.036Z,2.90
2023-04-16T01:49:16.765Z,3.30
2023-04-16T01:53:21.988Z,4.10
2023-04-16T01:57:27.172Z,3.80
2023-04-16T02:01:32.697Z,4.10
2023-04-16T02:05:37.991Z,2.70
2023-04-16T02:09:43.227Z,4.60
2023-04-16T02:13:48.424Z,3.40
2023-04-16T02:17:56.935Z,3.70
2023-04-16T02:22:02.696Z,3.90
2023-04-16T02:30:12.576Z,3.30
2023-04-16T02:34:17.869Z,4.40
2023-04-16T02:38:23.092Z,5.00
2023-04-16T02:42:28.599Z,4.80
2023-04-16T02:50:38.568Z,6.30
2023-04-16T02:54:43.789Z,4.50
2023-04-16T02:58:48.977Z,5.30
2023-04-16T03:02:54.424Z,4.20
2023-04-16T03:06:59.789Z,4.70
2023-04-16T03:11:05.010Z,4.40
2023-04-16T03:15:10.978Z,3.60
2023-04-16T03:19:16.255Z,4.30
2023-04-16T03:23:21.918Z,3.80
2023-04-16T03:27:27.146Z,2.90
2023-04-16T03:31:32.517Z,4.10
2023-04-16T03:35:37.743Z,3.70
2023-04-16T03:39:43.013Z,3.20
2023-04-16T03:43:48.315Z,3.30
2023-04-16T03:47:53.752Z,4.90
2023-04-16T03:56:02.661Z,4.40
2023-04-16T04:00:09.018Z,4.40
2023-04-16T04:04:14.493Z,5.30
2023-04-16T04:12:23.410Z,4.30
2023-04-16T04:16:28.670Z,5.60
2023-04-16T04:20:34.099Z,5.00
2023-04-16T04:24:39.314Z,4.30
2023-04-16T04:28:44.525Z,3.60
2023-04-16T04:32:49.916Z,5.10
2023-04-16T04:40:58.831Z,5.10
2023-04-16T04:45:04.077Z,4.70
2023-04-16T04:49:09.453Z,5.40
2023-04-16T04:53:15.111Z,5.60
2023-04-16T04:57:20.672Z,5.70
2023-04-16T05:01:26.138Z,6.10
2023-04-16T05:09:35.056Z,5.60
2023-04-16T05:13:40.469Z,5.10
2023-04-16T05:17:46.145Z,7.20
2023-04-16T05:21:51.610Z,4.20
2023-04-16T05:25:56.967Z,6.40
2023-04-16T05:30:02.360Z,6.00
2023-04-16T05:34:07.760Z,6.10
2023-04-16T05:38:13.026Z,5.90
2023-04-16T05:42:18.208Z,4.30
2023-04-16T05:46:23.857Z,5.80
2023-04-16T05:50:30.235Z,5.20
2023-04-16T05:54:35.464Z,4.80
2023-04-16T05:58:41.849Z,5.10
2023-04-16T06:02:47.254Z,6.50
2023-04-16T06:06:53.718Z,5.90
2023-04-16T06:10:59.011Z,6.20
2023-04-16T06:15:04.799Z,6.80
2023-04-16T06:19:10.231Z,5.30
2023-04-16T06:23:16.282Z,5.70
2023-04-16T06:27:21.483Z,5.70
2023-04-16T06:31:26.923Z,6.10
2023-04-16T06:35:34.087Z,7.30
2023-04-16T06:43:42.947Z,4.80
2023-04-16T06:51:53.365Z,5.80
2023-04-16T07:00:02.210Z,5.20
2023-04-16T07:08:11.644Z,5.90
2023-04-16T07:12:16.853Z,5.40
2023-04-16T07:24:29.614Z,4.80
2023-04-16T07:32:39.043Z,4.90
2023-04-16T07:36:44.317Z,4.60
2023-04-16T07:44:53.199Z,3.50
2023-04-16T07:48:58.519Z,4.70
2023-04-16T07:53:03.794Z,4.60
2023-04-16T07:57:09.014Z,3.50
2023-04-16T08:01:14.867Z,4.70
2023-04-16T08:05:20.216Z,5.00
2023-04-16T08:09:27.895Z,5.10
2023-04-16T08:13:33.732Z,4.50
2023-04-16T08:17:39.564Z,4.90
2023-04-16T08:21:44.972Z,5.40
2023-04-16T08:25:51.794Z,4.70
2023-04-16T08:29:58.239Z,6.30
2023-04-16T08:34:03.521Z,5.40
2023-04-16T08:38:08.795Z,5.20
2023-04-16T08:42:15.312Z,4.50
2023-04-16T08:46:22.311Z,5.80
2023-04-16T08:50:28.449Z,5.40
2023-04-16T08:54:38.765Z,4.60
2023-04-16T08:58:44.343Z,4.70
2023-04-16T09:02:50.442Z,5.60
2023-04-16T09:06:56.312Z,5.50
2023-04-16T09:11:01.673Z,6.60
2023-04-16T09:15:07.745Z,6.60
2023-04-16T09:19:13.253Z,6.60
2023-04-16T09:23:18.854Z,3.50
2023-04-16T09:27:26.016Z,6.10
2023-04-16T09:31:31.427Z,5.40
2023-04-16T09:35:45.810Z,5.20
2023-04-16T09:39:56.264Z,6.90
2023-04-16T09:44:02.252Z,5.70
2023-04-16T09:48:08.056Z,5.20
2023-04-16T09:52:15.873Z,5.70
2023-04-16T09:56:24.424Z,5.20
2023-04-16T10:00:29.853Z,5.50
2023-04-16T10:04:46.026Z,6.60
2023-04-16T10:08:51.873Z,5.10
2023-04-16T10:12:57.984Z,8.20
2023-04-16T10:17:04.110Z,5.20
2023-04-16T10:21:11.943Z,7.00
2023-04-16T10:25:17.931Z,5.90
2023-04-16T10:29:23.824Z,6.60
2023-04-16T10:33:29.657Z,5.20
2023-04-16T10:37:34.882Z,4.60
2023-04-16T10:41:40.335Z,5.50
2023-04-16T10:45:45.629Z,6.30
2023-04-16T10:49:50.945Z,7.10
2023-04-16T10:53:57.184Z,7.10
2023-04-16T10:58:02.461Z,5.20
2023-04-16T11:02:10.343Z,6.00
2023-04-16T11:06:17.488Z,5.80
2023-04-16T11:10:26.375Z,5.80
2023-04-16T11:14:31.718Z,5.00
2023-04-16T11:18:37.436Z,6.00
2023-04-16T11:22:48.838Z,7.30
2023-04-16T11:26:54.098Z,6.60
2023-04-16T11:30:59.922Z,5.30
2023-04-16T11:35:05.922Z,6.80
2023-04-16T11:39:11.433Z,6.10
2023-04-16T11:43:17.493Z,6.30
2023-04-16T11:47:23.260Z,6.20
2023-04-16T11:51:28.649Z,5.10
2023-04-16T11:55:44.307Z,5.40
2023-04-16T12:00:02.513Z,6.90
2023-04-16T12:04:09.193Z,5.30
2023-04-16T12:08:29.357Z,5.60
2023-04-16T12:12:35.525Z,6.00
2023-04-16T12:16:40.866Z,6.30
2023-04-16T12:20:46.675Z,5.70
2023-04-16T12:24:57.068Z,7.20
2023-04-16T12:29:16.166Z,5.80
2023-04-16T12:33:21.490Z,6.10
2023-04-16T12:37:26.708Z,5.40
2023-04-16T12:41:31.932Z,5.60
2023-04-16T12:45:37.220Z,5.70
2023-04-16T12:49:42.449Z,4.70
2023-04-16T12:53:47.659Z,5.20
2023-04-16T12:57:53.138Z,6.20
2023-04-16T13:01:58.520Z,8.40
2023-04-16T13:06:04.209Z,5.30
2023-04-16T13:10:10.479Z,5.30
2023-04-16T13:14:15.787Z,5.20
2023-04-16T13:18:21.000Z,6.30
2023-04-16T13:22:26.390Z,6.10
2023-04-16T13:26:31.647Z,5.60
2023-04-16T13:30:37.008Z,7.40
2023-04-16T13:34:42.252Z,4.70
2023-04-16T13:38:47.467Z,6.10
2023-04-16T13:42:52.719Z,5.60
2023-04-16T13:46:58.216Z,10.90
2023-04-16T13:51:03.678Z,4.80
2023-04-16T13:55:10.025Z,5.30
2023-04-16T13:59:16.787Z,5.40
2023-04-16T14:03:22.088Z,5.30
2023-04-16T14:07:27.717Z,6.50
2023-04-16T14:11:32.973Z,5.30
2023-04-16T14:15:38.529Z,5.00
2023-04-16T14:19:43.784Z,6.10
2023-04-16T14:23:48.982Z,6.30
2023-04-16T14:27:54.255Z,6.90
2023-04-16T14:31:59.968Z,5.40
2023-04-16T14:36:05.467Z,5.10
2023-04-16T14:40:12.369Z,4.00
2023-04-16T14:44:17.640Z,5.60
2023-04-16T14:48:22.990Z,5.50
2023-04-16T14:52:28.714Z,4.40
2023-04-16T14:56:33.957Z,5.90
2023-04-16T15:00:39.172Z,5.60
2023-04-16T15:04:44.434Z,5.30
2023-04-16T15:08:49.675Z,5.00
2023-04-16T15:12:55.004Z,5.50
2023-04-16T15:17:00.269Z,5.10
2023-04-16T15:21:05.609Z,5.90
2023-04-16T15:25:11.269Z,4.70
2023-04-16T15:29:17.224Z,5.00
2023-04-16T15:33:23.042Z,6.10
2023-04-16T15:37:28.292Z,6.80
2023-04-16T15:41:36.290Z,5.70
2023-04-16T15:45:42.255Z,5.60
2023-04-16T15:49:47.478Z,5.60
2023-04-16T15:53:53.553Z,5.20
2023-04-16T15:57:58.753Z,5.70
2023-04-16T16:02:04.081Z,6.80
2023-04-16T16:06:09.674Z,4.60
2023-04-16T16:10:14.938Z,4.70
2023-04-16T16:14:20.209Z,6.00
2023-04-16T16:18:25.652Z,5.80
2023-04-16T16:22:30.911Z,6.00
2023-04-16T16:26:36.400Z,6.60
2023-04-16T16:30:41.914Z,7.60
2023-04-16T16:34:47.124Z,7.90
2023-04-16T16:38:52.597Z,5.90
2023-04-16T16:42:57.936Z,6.70
2023-04-16T16:47:06.565Z,6.30
2023-04-16T16:51:12.243Z,5.80
2023-04-16T16:55:18.789Z,5.90
2023-04-16T16:59:30.355Z,7.20
2023-04-16T17:03:36.527Z,6.40
2023-04-16T17:07:45.905Z,4.10
2023-04-16T17:11:51.815Z,6.60
2023-04-16T17:15:57.083Z,7.20
2023-04-16T17:20:05.295Z,6.50
2023-04-16T17:24:10.771Z,4.90
2023-04-16T17:28:16.133Z,6.40
2023-04-16T17:32:21.704Z,6.60
2023-04-16T17:36:27.199Z,8.90
2023-04-16T17:40:32.392Z,7.00
2023-04-16T17:44:37.606Z,7.10
2023-04-16T17:48:43.995Z,8.30
2023-04-16T17:52:49.255Z,5.60
2023-04-16T17:56:54.525Z,9.00
2023-04-16T18:00:59.838Z,8.00
2023-04-16T18:05:05.462Z,7.60
2023-04-16T18:09:10.752Z,7.00
2023-04-16T18:13:16.115Z,7.30
2023-04-16T18:17:22.844Z,7.60
2023-04-16T18:21:29.864Z,7.00
2023-04-16T18:25:38.156Z,10.20
2023-04-16T18:29:45.825Z,8.30
2023-04-16T18:33:57.232Z,7.60
2023-04-16T18:38:03.456Z,7.30
2023-04-16T18:42:08.772Z,7.70
2023-04-16T18:46:14.083Z,7.20
2023-04-16T18:54:22.996Z,7.10
2023-04-16T18:58:28.695Z,6.80
2023-04-16T19:02:34.042Z,8.20
2023-04-16T19:06:40.119Z,7.30
2023-04-16T19:10:47.392Z,7.20
2023-04-16T19:14:52.641Z,8.20
2023-04-16T19:18:57.886Z,7.40
2023-04-16T19:23:05.361Z,8.60
2023-04-16T19:27:10.589Z,8.30
2023-04-16T19:31:16.009Z,8.80
2023-04-16T19:39:26.868Z,10.00
2023-04-16T19:43:32.104Z,9.00
2023-04-16T19:47:37.354Z,8.80
2023-04-16T19:55:46.821Z,7.60
2023-04-16T20:03:55.872Z,9.00
2023-04-16T20:08:01.159Z,8.00
2023-04-16T20:12:06.687Z,9.80
2023-04-16T20:16:13.687Z,9.50
2023-04-16T20:20:19.111Z,8.70
2023-04-16T20:24:25.059Z,9.90
2023-04-16T20:28:30.444Z,8.60
2023-04-16T20:32:36.092Z,7.90
2023-04-16T20:36:41.441Z,8.90
2023-04-16T20:40:47.224Z,10.80
2023-04-16T20:44:56.382Z,7.70
2023-04-16T20:49:02.491Z,9.20
2023-04-16T20:53:07.706Z,9.80
2023-04-16T20:57:13.050Z,9.90
2023-04-16T21:01:18.441Z,9.80
2023-04-16T21:09:29.197Z,9.70
2023-04-16T21:13:34.512Z,11.20
2023-04-16T21:17:39.778Z,10.70
2023-04-16T21:21:45.079Z,11.40
2023-04-16T21:25:50.314Z,10.20
2023-04-16T21:29:55.713Z,8.80
2023-04-16T21:34:00.943Z,8.90
2023-04-16T21:38:06.233Z,10.30
2023-04-16T21:42:11.491Z,9.60
2023-04-16T21:46:16.719Z,11.10
2023-04-16T21:50:22.041Z,9.60
2023-04-16T21:54:27.330Z,10.60
2023-04-16T21:58:32.576Z,11.60
2023-04-16T22:02:37.953Z,10.50
2023-04-16T22:06:43.387Z,11.50
2023-04-16T22:10:48.656Z,10.70
2023-04-16T22:15:02.453Z,9.20
2023-04-16T22:19:08.535Z,11.00
2023-04-16T22:27:17.416Z,9.60
2023-04-16T22:31:22.645Z,11.60
2023-04-16T22:35:27.960Z,9.60
2023-04-16T22:39:33.283Z,8.90
2023-04-16T22:43:38.566Z,9.20
2023-04-16T22:47:44.154Z,8.80
2023-04-16T22:55:53.165Z,10.60
2023-04-16T22:59:58.600Z,10.10
2023-04-16T23:04:03.966Z,10.30
2023-04-16T23:08:09.378Z,10.70
2023-04-16T23:12:14.643Z,9.50
2023-04-16T23:16:19.970Z,10.80
2023-04-16T23:20:25.316Z,12.60
2023-04-16T23:24:33.184Z,10.00
2023-04-16T23:28:38.505Z,11.60
2023-04-16T23:32:43.821Z,9.40
2023-04-16T23:36:49.125Z,8.80
2023-04-16T23:40:54.460Z,9.10
2023-04-16T23:45:00.010Z,9.00
2023-04-16T23:53:09.032Z,7.80
2023-04-16T23:57:15.198Z,11.00
